sensor_id;sensor_type;location;lat;lon;timestamp;temperature;humidity
39951;DHT22;25629;51.444;-2.606;2023-06-10T00:02:10;18.40;99.90
39951;DHT22;25629;51.444;-2.606;2023-06-10T00:04:36;18.40;1.00
39951;DHT22;25629;51.444;-2.606;2023-06-10T00:07:05;18.40;1.00
39951;DHT22;25629;51.444;-2.606;2023-06-10T00:09:37;18.40;1.00
39951;DHT22;25629;51.444;-2.606;2023-06-10T00:12:06;18.20;99.90
39951;DHT22;25629;51.444;-2.606;2023-06-10T00:14:36;18.20;96.90
39951;DHT22;25629;51.444;-2.606;2023-06-10T00:17:02;18.20;99.90
39951;DHT22;25629;51.444;-2.606;2023-06-10T00:19:28;18.20;99.90
39951;DHT22;25629;51.444;-2.606;2023-06-10T00:21:55;18.10;1.00
39951;DHT22;25629;51.444;-2.606;2023-06-10T00:24:21;18.10;99.90
39951;DHT22;25629;51.444;-2.606;2023-06-10T00:26:47;18.00;1.00
39951;DHT22;25629;51.444;-2.606;2023-06-10T00:29:13;17.90;99.90
39951;DHT22;25629;51.444;-2.606;2023-06-10T00:31:39;18.00;1.00
39951;DHT22;25629;51.444;-2.606;2023-06-10T00:34:05;17.90;99.90
39951;DHT22;25629;51.444;-2.606;2023-06-10T00:36:31;17.80;1.00
39951;DHT22;25629;51.444;-2.606;2023-06-10T00:38:57;17.80;99.90
39951;DHT22;25629;51.444;-2.606;2023-06-10T00:41:22;17.80;99.90
39951;DHT22;25629;51.444;-2.606;2023-06-10T00:43:48;17.80;99.90
39951;DHT22;25629;51.444;-2.606;2023-06-10T00:46:14;17.70;99.90
39951;DHT22;25629;51.444;-2.606;2023-06-10T00:48:40;17.70;99.90
39951;DHT22;25629;51.444;-2.606;2023-06-10T00:51:07;17.60;99.90
39951;DHT22;25629;51.444;-2.606;2023-06-10T00:53:34;17.60;99.90
39951;DHT22;25629;51.444;-2.606;2023-06-10T00:56:00;17.50;99.90
39951;DHT22;25629;51.444;-2.606;2023-06-10T00:58:26;17.50;99.90
39951;DHT22;25629;51.444;-2.606;2023-06-10T01:00:51;17.30;99.90
39951;DHT22;25629;51.444;-2.606;2023-06-10T01:03:18;17.30;99.90
39951;DHT22;25629;51.444;-2.606;2023-06-10T01:05:45;17.20;99.90
39951;DHT22;25629;51.444;-2.606;2023-06-10T01:10:48;17.20;1.00
39951;DHT22;25629;51.444;-2.606;2023-06-10T01:13:15;17.20;92.20
39951;DHT22;25629;51.444;-2.606;2023-06-10T01:15:41;17.20;16.40
39951;DHT22;25629;51.444;-2.606;2023-06-10T01:18:08;17.20;99.90
39951;DHT22;25629;51.444;-2.606;2023-06-10T01:20:35;17.10;99.90
39951;DHT22;25629;51.444;-2.606;2023-06-10T01:23:02;17.10;1.00
39951;DHT22;25629;51.444;-2.606;2023-06-10T01:25:28;17.10;99.90
39951;DHT22;25629;51.444;-2.606;2023-06-10T01:28:11;17.10;99.90
39951;DHT22;25629;51.444;-2.606;2023-06-10T01:33:21;16.90;99.90
39951;DHT22;25629;51.444;-2.606;2023-06-10T01:35:50;16.80;99.90
39951;DHT22;25629;51.444;-2.606;2023-06-10T01:38:16;16.80;99.90
39951;DHT22;25629;51.444;-2.606;2023-06-10T01:40:44;16.60;1.00
39951;DHT22;25629;51.444;-2.606;2023-06-10T01:43:11;16.60;1.00
39951;DHT22;25629;51.444;-2.606;2023-06-10T01:45:36;16.60;12.40
39951;DHT22;25629;51.444;-2.606;2023-06-10T01:48:02;16.60;1.00
39951;DHT22;25629;51.444;-2.606;2023-06-10T01:50:28;16.50;1.00
39951;DHT22;25629;51.444;-2.606;2023-06-10T01:52:53;16.40;24.10
39951;DHT22;25629;51.444;-2.606;2023-06-10T01:55:19;16.30;94.10
39951;DHT22;25629;51.444;-2.606;2023-06-10T01:57:45;16.30;99.90
39951;DHT22;25629;51.444;-2.606;2023-06-10T02:00:10;16.30;99.90
39951;DHT22;25629;51.444;-2.606;2023-06-10T02:02:36;16.30;99.90
39951;DHT22;25629;51.444;-2.606;2023-06-10T02:05:02;16.20;99.90
39951;DHT22;25629;51.444;-2.606;2023-06-10T02:07:28;16.10;99.90
39951;DHT22;25629;51.444;-2.606;2023-06-10T02:09:53;16.00;99.90
39951;DHT22;25629;51.444;-2.606;2023-06-10T02:12:19;16.00;99.90
39951;DHT22;25629;51.444;-2.606;2023-06-10T02:14:44;16.00;99.90
39951;DHT22;25629;51.444;-2.606;2023-06-10T02:17:10;15.90;99.90
39951;DHT22;25629;51.444;-2.606;2023-06-10T02:19:38;15.90;99.90
39951;DHT22;25629;51.444;-2.606;2023-06-10T02:22:10;15.90;99.90
39951;DHT22;25629;51.444;-2.606;2023-06-10T02:24:36;15.90;99.90
39951;DHT22;25629;51.444;-2.606;2023-06-10T02:27:03;15.90;99.90
39951;DHT22;25629;51.444;-2.606;2023-06-10T02:29:33;16.00;99.90
39951;DHT22;25629;51.444;-2.606;2023-06-10T02:31:58;16.00;99.90
39951;DHT22;25629;51.444;-2.606;2023-06-10T02:34:24;16.00;99.90
39951;DHT22;25629;51.444;-2.606;2023-06-10T02:36:50;16.10;99.90
39951;DHT22;25629;51.444;-2.606;2023-06-10T02:39:16;16.20;99.90
39951;DHT22;25629;51.444;-2.606;2023-06-10T02:41:42;16.10;99.90
39951;DHT22;25629;51.444;-2.606;2023-06-10T02:44:07;16.10;99.90
39951;DHT22;25629;51.444;-2.606;2023-06-10T02:46:33;16.10;99.90
39951;DHT22;25629;51.444;-2.606;2023-06-10T02:48:58;16.10;99.90
39951;DHT22;25629;51.444;-2.606;2023-06-10T02:51:24;16.20;99.90
39951;DHT22;25629;51.444;-2.606;2023-06-10T02:53:50;16.20;99.90
39951;DHT22;25629;51.444;-2.606;2023-06-10T02:56:16;16.10;99.90
39951;DHT22;25629;51.444;-2.606;2023-06-10T02:58:42;16.00;99.90
39951;DHT22;25629;51.444;-2.606;2023-06-10T03:01:07;15.90;99.90
39951;DHT22;25629;51.444;-2.606;2023-06-10T03:03:35;15.90;99.90
39951;DHT22;25629;51.444;-2.606;2023-06-10T03:06:02;16.10;99.90
39951;DHT22;25629;51.444;-2.606;2023-06-10T03:08:28;16.10;99.90
39951;DHT22;25629;51.444;-2.606;2023-06-10T03:10:53;16.00;99.90
39951;DHT22;25629;51.444;-2.606;2023-06-10T03:13:19;15.80;99.90
39951;DHT22;25629;51.444;-2.606;2023-06-10T03:15:44;15.80;99.90
39951;DHT22;25629;51.444;-2.606;2023-06-10T03:18:11;15.80;99.90
39951;DHT22;25629;51.444;-2.606;2023-06-10T03:20:37;15.80;99.90
39951;DHT22;25629;51.444;-2.606;2023-06-10T03:23:04;15.70;99.90
39951;DHT22;25629;51.444;-2.606;2023-06-10T03:25:30;15.70;99.90
39951;DHT22;25629;51.444;-2.606;2023-06-10T03:27:56;15.80;99.90
39951;DHT22;25629;51.444;-2.606;2023-06-10T03:30:21;15.80;99.90
39951;DHT22;25629;51.444;-2.606;2023-06-10T03:32:47;15.60;99.90
39951;DHT22;25629;51.444;-2.606;2023-06-10T03:35:13;15.70;99.90
39951;DHT22;25629;51.444;-2.606;2023-06-10T03:37:40;15.80;99.90
39951;DHT22;25629;51.444;-2.606;2023-06-10T03:40:06;15.90;99.90
39951;DHT22;25629;51.444;-2.606;2023-06-10T03:42:32;15.90;99.90
39951;DHT22;25629;51.444;-2.606;2023-06-10T03:44:58;15.80;99.90
39951;DHT22;25629;51.444;-2.606;2023-06-10T03:47:23;15.80;99.90
39951;DHT22;25629;51.444;-2.606;2023-06-10T03:49:49;15.80;99.90
39951;DHT22;25629;51.444;-2.606;2023-06-10T03:52:14;16.00;99.90
39951;DHT22;25629;51.444;-2.606;2023-06-10T03:54:40;16.10;99.90
39951;DHT22;25629;51.444;-2.606;2023-06-10T03:57:06;16.20;99.90
39951;DHT22;25629;51.444;-2.606;2023-06-10T03:59:31;16.20;99.90
39951;DHT22;25629;51.444;-2.606;2023-06-10T04:01:57;16.10;99.90
39951;DHT22;25629;51.444;-2.606;2023-06-10T04:04:23;16.10;99.90
39951;DHT22;25629;51.444;-2.606;2023-06-10T04:06:49;16.00;99.90
39951;DHT22;25629;51.444;-2.606;2023-06-10T04:09:15;16.00;99.90
39951;DHT22;25629;51.444;-2.606;2023-06-10T04:11:41;16.00;99.90
39951;DHT22;25629;51.444;-2.606;2023-06-10T04:14:07;16.00;99.90
39951;DHT22;25629;51.444;-2.606;2023-06-10T04:16:33;16.00;99.90
39951;DHT22;25629;51.444;-2.606;2023-06-10T04:18:59;16.10;99.90
39951;DHT22;25629;51.444;-2.606;2023-06-10T04:21:26;16.20;99.90
39951;DHT22;25629;51.444;-2.606;2023-06-10T04:23:51;16.20;99.90
39951;DHT22;25629;51.444;-2.606;2023-06-10T04:26:17;16.20;99.90
39951;DHT22;25629;51.444;-2.606;2023-06-10T04:28:43;16.30;99.90
39951;DHT22;25629;51.444;-2.606;2023-06-10T04:31:08;16.10;99.90
39951;DHT22;25629;51.444;-2.606;2023-06-10T04:33:35;16.10;99.90
39951;DHT22;25629;51.444;-2.606;2023-06-10T04:36:00;16.20;99.90
39951;DHT22;25629;51.444;-2.606;2023-06-10T04:38:26;16.20;99.90
39951;DHT22;25629;51.444;-2.606;2023-06-10T04:40:52;16.20;99.90
39951;DHT22;25629;51.444;-2.606;2023-06-10T04:43:18;16.20;99.90
39951;DHT22;25629;51.444;-2.606;2023-06-10T04:45:43;16.10;99.90
39951;DHT22;25629;51.444;-2.606;2023-06-10T04:48:10;16.20;99.90
39951;DHT22;25629;51.444;-2.606;2023-06-10T04:50:36;16.20;99.90
39951;DHT22;25629;51.444;-2.606;2023-06-10T04:53:02;16.30;99.90
39951;DHT22;25629;51.444;-2.606;2023-06-10T04:55:28;16.30;99.90
39951;DHT22;25629;51.444;-2.606;2023-06-10T04:57:53;16.30;99.90
39951;DHT22;25629;51.444;-2.606;2023-06-10T05:00:19;16.30;99.90
39951;DHT22;25629;51.444;-2.606;2023-06-10T05:02:44;16.40;99.90
39951;DHT22;25629;51.444;-2.606;2023-06-10T05:05:10;16.30;99.90
39951;DHT22;25629;51.444;-2.606;2023-06-10T05:07:36;16.40;99.90
39951;DHT22;25629;51.444;-2.606;2023-06-10T05:10:02;16.50;99.90
39951;DHT22;25629;51.444;-2.606;2023-06-10T05:12:28;16.70;99.90
39951;DHT22;25629;51.444;-2.606;2023-06-10T05:14:53;16.70;99.90
39951;DHT22;25629;51.444;-2.606;2023-06-10T05:17:19;16.70;99.90
39951;DHT22;25629;51.444;-2.606;2023-06-10T05:19:44;16.70;99.90
39951;DHT22;25629;51.444;-2.606;2023-06-10T05:22:10;16.70;99.90
39951;DHT22;25629;51.444;-2.606;2023-06-10T05:24:36;16.70;99.90
39951;DHT22;25629;51.444;-2.606;2023-06-10T05:27:01;16.80;99.90
39951;DHT22;25629;51.444;-2.606;2023-06-10T05:29:28;16.80;99.90
39951;DHT22;25629;51.444;-2.606;2023-06-10T05:31:53;16.80;99.90
39951;DHT22;25629;51.444;-2.606;2023-06-10T05:34:21;16.90;99.90
39951;DHT22;25629;51.444;-2.606;2023-06-10T05:36:47;17.00;99.90
39951;DHT22;25629;51.444;-2.606;2023-06-10T05:39:12;17.10;99.90
39951;DHT22;25629;51.444;-2.606;2023-06-10T05:41:38;17.30;99.90
39951;DHT22;25629;51.444;-2.606;2023-06-10T05:44:03;17.30;1.00
39951;DHT22;25629;51.444;-2.606;2023-06-10T05:46:29;17.20;1.00
39951;DHT22;25629;51.444;-2.606;2023-06-10T05:48:55;17.10;1.00
39951;DHT22;25629;51.444;-2.606;2023-06-10T05:51:21;17.10;1.00
39951;DHT22;25629;51.444;-2.606;2023-06-10T05:53:46;17.10;1.00
39951;DHT22;25629;51.444;-2.606;2023-06-10T05:56:13;17.00;29.90
39951;DHT22;25629;51.444;-2.606;2023-06-10T05:58:38;17.10;65.90
39951;DHT22;25629;51.444;-2.606;2023-06-10T06:01:04;17.20;99.90
39951;DHT22;25629;51.444;-2.606;2023-06-10T06:03:29;17.30;99.90
39951;DHT22;25629;51.444;-2.606;2023-06-10T06:05:55;17.30;99.90
39951;DHT22;25629;51.444;-2.606;2023-06-10T06:08:21;17.30;99.90
39951;DHT22;25629;51.444;-2.606;2023-06-10T06:10:46;17.40;1.00
39951;DHT22;25629;51.444;-2.606;2023-06-10T06:13:13;17.30;99.90
39951;DHT22;25629;51.444;-2.606;2023-06-10T06:15:38;17.20;92.30
39951;DHT22;25629;51.444;-2.606;2023-06-10T06:18:04;17.20;99.90
39951;DHT22;25629;51.444;-2.606;2023-06-10T06:20:30;17.30;1.00
39951;DHT22;25629;51.444;-2.606;2023-06-10T06:22:55;17.30;94.60
39951;DHT22;25629;51.444;-2.606;2023-06-10T06:25:21;17.30;99.90
39951;DHT22;25629;51.444;-2.606;2023-06-10T06:27:46;17.40;99.90
39951;DHT22;25629;51.444;-2.606;2023-06-10T06:30:12;17.50;1.00
39951;DHT22;25629;51.444;-2.606;2023-06-10T06:32:37;17.40;1.00
39951;DHT22;25629;51.444;-2.606;2023-06-10T06:35:03;17.50;1.00
39951;DHT22;25629;51.444;-2.606;2023-06-10T06:37:31;17.60;99.90
39951;DHT22;25629;51.444;-2.606;2023-06-10T06:39:57;17.80;99.90
39951;DHT22;25629;51.444;-2.606;2023-06-10T06:42:23;17.80;30.00
39951;DHT22;25629;51.444;-2.606;2023-06-10T06:44:48;17.90;1.90
39951;DHT22;25629;51.444;-2.606;2023-06-10T06:47:14;18.10;99.90
39951;DHT22;25629;51.444;-2.606;2023-06-10T06:49:39;18.10;99.90
39951;DHT22;25629;51.444;-2.606;2023-06-10T06:52:05;18.40;99.90
39951;DHT22;25629;51.444;-2.606;2023-06-10T06:54:31;18.40;8.40
39951;DHT22;25629;51.444;-2.606;2023-06-10T06:56:56;18.40;99.90
39951;DHT22;25629;51.444;-2.606;2023-06-10T06:59:22;18.40;99.90
39951;DHT22;25629;51.444;-2.606;2023-06-10T07:01:48;18.50;99.90
39951;DHT22;25629;51.444;-2.606;2023-06-10T07:04:14;18.50;99.90
39951;DHT22;25629;51.444;-2.606;2023-06-10T07:06:40;18.50;99.90
39951;DHT22;25629;51.444;-2.606;2023-06-10T07:09:06;18.50;99.90
39951;DHT22;25629;51.444;-2.606;2023-06-10T07:11:32;18.60;97.80
39951;DHT22;25629;51.444;-2.606;2023-06-10T07:13:58;18.70;99.90
39951;DHT22;25629;51.444;-2.606;2023-06-10T07:16:23;18.40;1.00
39951;DHT22;25629;51.444;-2.606;2023-06-10T07:18:49;18.50;99.90
39951;DHT22;25629;51.444;-2.606;2023-06-10T07:21:14;18.60;1.00
39951;DHT22;25629;51.444;-2.606;2023-06-10T07:23:42;18.90;1.00
39951;DHT22;25629;51.444;-2.606;2023-06-10T07:26:08;19.00;99.90
39951;DHT22;25629;51.444;-2.606;2023-06-10T07:28:36;18.90;1.00
39951;DHT22;25629;51.444;-2.606;2023-06-10T07:31:02;18.80;92.00
39951;DHT22;25629;51.444;-2.606;2023-06-10T07:33:27;18.80;99.90
39951;DHT22;25629;51.444;-2.606;2023-06-10T07:35:53;19.00;1.00
39951;DHT22;25629;51.444;-2.606;2023-06-10T07:38:18;19.20;8.00
39951;DHT22;25629;51.444;-2.606;2023-06-10T07:40:45;19.30;99.90
39951;DHT22;25629;51.444;-2.606;2023-06-10T07:43:10;19.20;99.90
39951;DHT22;25629;51.444;-2.606;2023-06-10T07:45:36;19.40;99.90
39951;DHT22;25629;51.444;-2.606;2023-06-10T07:48:01;19.30;99.90
39951;DHT22;25629;51.444;-2.606;2023-06-10T07:50:27;19.60;99.90
39951;DHT22;25629;51.444;-2.606;2023-06-10T07:52:52;19.50;99.90
39951;DHT22;25629;51.444;-2.606;2023-06-10T07:55:18;19.60;99.90
39951;DHT22;25629;51.444;-2.606;2023-06-10T07:57:44;19.50;99.90
39951;DHT22;25629;51.444;-2.606;2023-06-10T08:00:09;19.50;99.90
39951;DHT22;25629;51.444;-2.606;2023-06-10T08:02:35;19.70;99.90
39951;DHT22;25629;51.444;-2.606;2023-06-10T08:05:01;19.70;99.90
39951;DHT22;25629;51.444;-2.606;2023-06-10T08:07:27;19.80;99.90
39951;DHT22;25629;51.444;-2.606;2023-06-10T08:09:53;19.70;99.90
39951;DHT22;25629;51.444;-2.606;2023-06-10T08:12:18;20.00;99.90
39951;DHT22;25629;51.444;-2.606;2023-06-10T08:14:44;20.10;99.90
39951;DHT22;25629;51.444;-2.606;2023-06-10T08:17:10;20.20;96.60
39951;DHT22;25629;51.444;-2.606;2023-06-10T08:19:36;20.10;94.20
39951;DHT22;25629;51.444;-2.606;2023-06-10T08:22:01;20.00;99.90
39951;DHT22;25629;51.444;-2.606;2023-06-10T08:24:27;20.10;99.90
39951;DHT22;25629;51.444;-2.606;2023-06-10T08:26:52;20.10;99.90
39951;DHT22;25629;51.444;-2.606;2023-06-10T08:29:18;20.00;99.90
39951;DHT22;25629;51.444;-2.606;2023-06-10T08:31:44;20.10;99.90
39951;DHT22;25629;51.444;-2.606;2023-06-10T08:34:10;20.30;98.80
39951;DHT22;25629;51.444;-2.606;2023-06-10T08:36:35;20.50;83.50
39951;DHT22;25629;51.444;-2.606;2023-06-10T08:39:02;20.80;28.50
39951;DHT22;25629;51.444;-2.606;2023-06-10T08:41:28;21.40;1.00
39951;DHT22;25629;51.444;-2.606;2023-06-10T08:43:59;21.60;1.00
39951;DHT22;25629;51.444;-2.606;2023-06-10T08:46:28;21.70;1.00
39951;DHT22;25629;51.444;-2.606;2023-06-10T08:48:54;22.10;1.00
39951;DHT22;25629;51.444;-2.606;2023-06-10T08:51:20;22.20;1.00
39951;DHT22;25629;51.444;-2.606;2023-06-10T08:53:58;22.50;1.00
39951;DHT22;25629;51.444;-2.606;2023-06-10T08:56:26;22.70;1.00
39951;DHT22;25629;51.444;-2.606;2023-06-10T08:58:53;22.80;1.00
39951;DHT22;25629;51.444;-2.606;2023-06-10T09:01:19;23.00;1.00
39951;DHT22;25629;51.444;-2.606;2023-06-10T09:03:44;23.10;1.00
39951;DHT22;25629;51.444;-2.606;2023-06-10T09:06:10;23.20;1.00
39951;DHT22;25629;51.444;-2.606;2023-06-10T09:08:36;23.30;1.00
39951;DHT22;25629;51.444;-2.606;2023-06-10T09:11:01;23.40;1.00
39951;DHT22;25629;51.444;-2.606;2023-06-10T09:13:27;23.60;1.00
39951;DHT22;25629;51.444;-2.606;2023-06-10T09:15:53;23.70;99.90
39951;DHT22;25629;51.444;-2.606;2023-06-10T09:18:21;23.70;99.90
39951;DHT22;25629;51.444;-2.606;2023-06-10T09:20:47;23.80;99.90
39951;DHT22;25629;51.444;-2.606;2023-06-10T09:23:13;24.10;99.90
39951;DHT22;25629;51.444;-2.606;2023-06-10T09:25:38;24.30;99.90
39951;DHT22;25629;51.444;-2.606;2023-06-10T09:28:04;24.50;99.90
39951;DHT22;25629;51.444;-2.606;2023-06-10T09:30:33;24.90;99.90
39951;DHT22;25629;51.444;-2.606;2023-06-10T09:33:00;25.10;99.90
39951;DHT22;25629;51.444;-2.606;2023-06-10T09:35:26;25.10;99.90
39951;DHT22;25629;51.444;-2.606;2023-06-10T09:37:52;24.90;99.90
39951;DHT22;25629;51.444;-2.606;2023-06-10T09:40:19;24.70;99.90
39951;DHT22;25629;51.444;-2.606;2023-06-10T09:42:45;24.80;99.90
39951;DHT22;25629;51.444;-2.606;2023-06-10T09:45:10;24.90;99.90
39951;DHT22;25629;51.444;-2.606;2023-06-10T09:47:36;25.20;99.90
39951;DHT22;25629;51.444;-2.606;2023-06-10T09:50:01;25.40;99.90
39951;DHT22;25629;51.444;-2.606;2023-06-10T09:52:29;25.40;99.90
39951;DHT22;25629;51.444;-2.606;2023-06-10T09:54:59;25.50;99.90
39951;DHT22;25629;51.444;-2.606;2023-06-10T09:57:25;25.70;99.90
39951;DHT22;25629;51.444;-2.606;2023-06-10T09:59:54;25.80;99.90
39951;DHT22;25629;51.444;-2.606;2023-06-10T10:02:20;26.10;99.90
39951;DHT22;25629;51.444;-2.606;2023-06-10T10:04:45;26.40;99.90
39951;DHT22;25629;51.444;-2.606;2023-06-10T10:07:11;26.40;99.90
39951;DHT22;25629;51.444;-2.606;2023-06-10T10:09:37;26.60;99.90
39951;DHT22;25629;51.444;-2.606;2023-06-10T10:12:05;26.70;99.90
39951;DHT22;25629;51.444;-2.606;2023-06-10T10:14:32;26.90;99.90
39951;DHT22;25629;51.444;-2.606;2023-06-10T10:16:58;27.10;99.90
39951;DHT22;25629;51.444;-2.606;2023-06-10T10:19:28;27.20;99.90
39951;DHT22;25629;51.444;-2.606;2023-06-10T10:21:56;27.30;99.90
39951;DHT22;25629;51.444;-2.606;2023-06-10T10:24:26;27.10;99.90
39951;DHT22;25629;51.444;-2.606;2023-06-10T10:26:57;27.50;99.90
39951;DHT22;25629;51.444;-2.606;2023-06-10T10:29:30;27.70;99.90
39951;DHT22;25629;51.444;-2.606;2023-06-10T10:31:56;27.70;99.90
39951;DHT22;25629;51.444;-2.606;2023-06-10T10:35:25;27.60;99.90
39951;DHT22;25629;51.444;-2.606;2023-06-10T10:37:20;27.80;99.90
39951;DHT22;25629;51.444;-2.606;2023-06-10T10:39:45;28.10;99.90
39951;DHT22;25629;51.444;-2.606;2023-06-10T10:42:11;28.20;99.90
39951;DHT22;25629;51.444;-2.606;2023-06-10T10:44:37;28.60;99.90
39951;DHT22;25629;51.444;-2.606;2023-06-10T10:47:04;28.70;99.90
39951;DHT22;25629;51.444;-2.606;2023-06-10T10:49:32;28.90;99.90
39951;DHT22;25629;51.444;-2.606;2023-06-10T10:51:59;29.20;99.90
39951;DHT22;25629;51.444;-2.606;2023-06-10T10:54:34;29.00;99.90
39951;DHT22;25629;51.444;-2.606;2023-06-10T10:57:10;29.00;99.90
39951;DHT22;25629;51.444;-2.606;2023-06-10T10:59:54;29.50;99.90
39951;DHT22;25629;51.444;-2.606;2023-06-10T11:05:05;29.70;99.90
39951;DHT22;25629;51.444;-2.606;2023-06-10T11:07:31;29.30;99.90
39951;DHT22;25629;51.444;-2.606;2023-06-10T11:10:01;29.50;99.90
39951;DHT22;25629;51.444;-2.606;2023-06-10T11:12:49;29.60;99.90
39951;DHT22;25629;51.444;-2.606;2023-06-10T11:15:13;29.50;99.90
39951;DHT22;25629;51.444;-2.606;2023-06-10T11:20:44;29.60;99.90
39951;DHT22;25629;51.444;-2.606;2023-06-10T11:23:10;29.50;99.90
39951;DHT22;25629;51.444;-2.606;2023-06-10T11:25:39;29.60;99.90
39951;DHT22;25629;51.444;-2.606;2023-06-10T11:28:18;29.60;99.90
39951;DHT22;25629;51.444;-2.606;2023-06-10T11:30:45;29.40;99.90
39951;DHT22;25629;51.444;-2.606;2023-06-10T11:33:17;29.30;99.90
39951;DHT22;25629;51.444;-2.606;2023-06-10T11:35:43;29.30;99.90
39951;DHT22;25629;51.444;-2.606;2023-06-10T11:38:08;29.20;99.90
39951;DHT22;25629;51.444;-2.606;2023-06-10T11:40:34;29.20;99.90
39951;DHT22;25629;51.444;-2.606;2023-06-10T11:43:00;29.60;99.90
39951;DHT22;25629;51.444;-2.606;2023-06-10T11:45:26;29.70;99.90
39951;DHT22;25629;51.444;-2.606;2023-06-10T11:47:58;29.70;99.90
39951;DHT22;25629;51.444;-2.606;2023-06-10T11:50:28;29.80;99.90
39951;DHT22;25629;51.444;-2.606;2023-06-10T11:52:53;30.00;99.90
39951;DHT22;25629;51.444;-2.606;2023-06-10T11:55:21;30.40;99.90
39951;DHT22;25629;51.444;-2.606;2023-06-10T11:57:46;30.40;99.90
39951;DHT22;25629;51.444;-2.606;2023-06-10T12:00:13;30.40;99.90
39951;DHT22;25629;51.444;-2.606;2023-06-10T12:02:38;30.40;99.90
39951;DHT22;25629;51.444;-2.606;2023-06-10T12:05:14;30.60;99.90
39951;DHT22;25629;51.444;-2.606;2023-06-10T12:07:39;30.50;99.90
39951;DHT22;25629;51.444;-2.606;2023-06-10T12:10:05;30.30;99.90
39951;DHT22;25629;51.444;-2.606;2023-06-10T12:12:30;30.00;99.90
39951;DHT22;25629;51.444;-2.606;2023-06-10T12:14:56;30.00;99.90
39951;DHT22;25629;51.444;-2.606;2023-06-10T12:19:57;30.30;99.90
39951;DHT22;25629;51.444;-2.606;2023-06-10T12:22:23;30.40;99.90
39951;DHT22;25629;51.444;-2.606;2023-06-10T12:25:00;31.10;99.90
39951;DHT22;25629;51.444;-2.606;2023-06-10T12:27:26;31.60;99.90
39951;DHT22;25629;51.444;-2.606;2023-06-10T12:29:55;32.10;99.90
39951;DHT22;25629;51.444;-2.606;2023-06-10T12:32:21;32.10;99.90
39951;DHT22;25629;51.444;-2.606;2023-06-10T12:35:01;31.70;99.90
39951;DHT22;25629;51.444;-2.606;2023-06-10T12:37:28;31.70;99.90
39951;DHT22;25629;51.444;-2.606;2023-06-10T12:39:54;31.40;99.90
39951;DHT22;25629;51.444;-2.606;2023-06-10T12:42:21;31.30;99.90
39951;DHT22;25629;51.444;-2.606;2023-06-10T12:44:47;31.20;99.90
39951;DHT22;25629;51.444;-2.606;2023-06-10T12:47:18;31.40;99.90
39951;DHT22;25629;51.444;-2.606;2023-06-10T12:49:43;31.20;99.90
39951;DHT22;25629;51.444;-2.606;2023-06-10T12:52:09;31.30;99.90
39951;DHT22;25629;51.444;-2.606;2023-06-10T12:54:34;31.60;99.90
39951;DHT22;25629;51.444;-2.606;2023-06-10T12:57:00;32.00;99.90
39951;DHT22;25629;51.444;-2.606;2023-06-10T12:59:26;32.20;99.90
39951;DHT22;25629;51.444;-2.606;2023-06-10T13:01:52;32.00;99.90
39951;DHT22;25629;51.444;-2.606;2023-06-10T13:04:18;31.60;99.90
39951;DHT22;25629;51.444;-2.606;2023-06-10T13:06:45;31.10;99.90
39951;DHT22;25629;51.444;-2.606;2023-06-10T13:09:12;31.00;99.90
39951;DHT22;25629;51.444;-2.606;2023-06-10T13:11:38;30.60;99.90
39951;DHT22;25629;51.444;-2.606;2023-06-10T13:14:04;30.50;99.90
39951;DHT22;25629;51.444;-2.606;2023-06-10T13:16:33;30.40;99.90
39951;DHT22;25629;51.444;-2.606;2023-06-10T13:18:58;30.50;99.90
39951;DHT22;25629;51.444;-2.606;2023-06-10T13:21:24;30.20;99.90
39951;DHT22;25629;51.444;-2.606;2023-06-10T13:23:50;29.90;99.90
39951;DHT22;25629;51.444;-2.606;2023-06-10T13:26:16;29.90;99.90
39951;DHT22;25629;51.444;-2.606;2023-06-10T13:28:45;29.80;99.90
39951;DHT22;25629;51.444;-2.606;2023-06-10T13:31:11;29.30;99.90
39951;DHT22;25629;51.444;-2.606;2023-06-10T13:33:37;29.10;99.90
39951;DHT22;25629;51.444;-2.606;2023-06-10T13:36:02;29.10;99.90
39951;DHT22;25629;51.444;-2.606;2023-06-10T13:38:28;29.10;99.90
39951;DHT22;25629;51.444;-2.606;2023-06-10T13:40:54;29.00;99.90
39951;DHT22;25629;51.444;-2.606;2023-06-10T13:43:19;29.10;99.90
39951;DHT22;25629;51.444;-2.606;2023-06-10T13:45:45;29.00;99.90
39951;DHT22;25629;51.444;-2.606;2023-06-10T13:48:11;29.20;99.90
39951;DHT22;25629;51.444;-2.606;2023-06-10T13:50:37;29.10;99.90
39951;DHT22;25629;51.444;-2.606;2023-06-10T13:53:02;29.00;99.90
39951;DHT22;25629;51.444;-2.606;2023-06-10T13:55:28;28.90;99.90
39951;DHT22;25629;51.444;-2.606;2023-06-10T13:57:53;28.50;99.90
39951;DHT22;25629;51.444;-2.606;2023-06-10T14:00:19;28.50;99.90
39951;DHT22;25629;51.444;-2.606;2023-06-10T14:02:45;28.30;99.90
39951;DHT22;25629;51.444;-2.606;2023-06-10T14:05:11;28.10;99.90
39951;DHT22;25629;51.444;-2.606;2023-06-10T14:07:37;28.00;99.90
39951;DHT22;25629;51.444;-2.606;2023-06-10T14:10:03;27.80;99.90
39951;DHT22;25629;51.444;-2.606;2023-06-10T14:12:29;27.70;99.90
39951;DHT22;25629;51.444;-2.606;2023-06-10T14:14:55;27.40;99.90
39951;DHT22;25629;51.444;-2.606;2023-06-10T14:17:20;27.10;99.90
39951;DHT22;25629;51.444;-2.606;2023-06-10T14:19:46;26.90;99.90
39951;DHT22;25629;51.444;-2.606;2023-06-10T14:22:11;26.70;99.90
39951;DHT22;25629;51.444;-2.606;2023-06-10T14:24:37;26.60;99.90
39951;DHT22;25629;51.444;-2.606;2023-06-10T14:27:02;26.60;99.90
39951;DHT22;25629;51.444;-2.606;2023-06-10T14:29:28;26.60;99.90
39951;DHT22;25629;51.444;-2.606;2023-06-10T14:31:54;26.50;99.90
39951;DHT22;25629;51.444;-2.606;2023-06-10T14:34:20;26.50;99.90
39951;DHT22;25629;51.444;-2.606;2023-06-10T14:36:46;26.50;99.90
39951;DHT22;25629;51.444;-2.606;2023-06-10T14:39:11;26.50;99.90
39951;DHT22;25629;51.444;-2.606;2023-06-10T14:41:37;26.50;99.90
39951;DHT22;25629;51.444;-2.606;2023-06-10T14:44:02;26.40;99.90
39951;DHT22;25629;51.444;-2.606;2023-06-10T14:46:28;26.40;99.90
39951;DHT22;25629;51.444;-2.606;2023-06-10T14:48:53;26.30;99.90
39951;DHT22;25629;51.444;-2.606;2023-06-10T14:51:19;26.20;99.90
39951;DHT22;25629;51.444;-2.606;2023-06-10T14:53:46;26.00;99.90
39951;DHT22;25629;51.444;-2.606;2023-06-10T14:56:12;25.90;99.90
39951;DHT22;25629;51.444;-2.606;2023-06-10T14:58:37;25.70;99.90
39951;DHT22;25629;51.444;-2.606;2023-06-10T15:01:03;25.70;99.90
39951;DHT22;25629;51.444;-2.606;2023-06-10T15:03:29;25.70;99.90
39951;DHT22;25629;51.444;-2.606;2023-06-10T15:05:54;25.60;99.90
39951;DHT22;25629;51.444;-2.606;2023-06-10T15:08:20;25.60;99.90
39951;DHT22;25629;51.444;-2.606;2023-06-10T15:10:45;25.50;99.90
39951;DHT22;25629;51.444;-2.606;2023-06-10T15:13:13;25.50;99.90
39951;DHT22;25629;51.444;-2.606;2023-06-10T15:15:39;25.40;99.90
39951;DHT22;25629;51.444;-2.606;2023-06-10T15:18:04;25.50;99.90
39951;DHT22;25629;51.444;-2.606;2023-06-10T15:20:30;25.60;99.90
39951;DHT22;25629;51.444;-2.606;2023-06-10T15:22:55;25.70;99.90
39951;DHT22;25629;51.444;-2.606;2023-06-10T15:25:21;25.70;99.90
39951;DHT22;25629;51.444;-2.606;2023-06-10T15:27:47;25.80;99.90